Time;durP1;ratioP1;P1;durP2;ratioP2;P2;SDS_P1;SDS_P2;PMS_P1;PMS_P2;Temp;Humidity;BMP_temperature;BMP_pressure;BME280_temperature;BME280_humidity;BME280_pressure;Samples;Min_cycle;Max_cycle;Signal;HPM_P1;HPM_P2
2024/04/11 00:01:05;;;;;;;0.75;0.10;;;;;;;15.04;59.30;101433.72;5415841;26;20050;-69
2024/04/11 00:03:34;;;;;;;0.45;0.10;;;;;;;14.76;60.23;101438.19;5410541;26;20039;-69
2024/04/11 00:06:00;;;;;;;1.17;0.10;;;;;;;14.69;59.36;101434.50;5415522;26;20016;-69
2024/04/11 00:08:26;;;;;;;0.90;0.40;;;;;;;14.77;59.29;101443.28;5410927;26;20091;-69
2024/04/11 00:10:51;;;;;;;0.77;0.30;;;;;;;14.76;60.49;101438.19;5399519;26;20015;-68
2024/04/11 00:13:19;;;;;;;0.88;0.13;;;;;;;14.60;62.17;101436.22;5410878;26;20033;-68
2024/04/11 00:15:45;;;;;;;2.13;0.30;;;;;;;14.42;62.78;101437.97;5406272;26;20015;-69
2024/04/11 00:18:11;;;;;;;1.13;0.10;;;;;;;14.26;62.64;101438.56;5412011;26;20009;-69
2024/04/11 00:20:36;;;;;;;0.52;0.20;;;;;;;14.13;62.94;101444.16;5408070;26;20084;-69
2024/04/11 00:23:02;;;;;;;1.83;0.10;;;;;;;14.02;63.57;101440.88;5411093;26;20007;-69
2024/04/11 00:25:27;;;;;;;0.47;0.10;;;;;;;13.95;63.71;101436.22;5406362;26;20547;-69
2024/04/11 00:27:53;;;;;;;1.90;0.10;;;;;;;13.96;63.68;101437.03;5409268;26;20365;-69
2024/04/11 00:30:19;;;;;;;3.60;0.20;;;;;;;13.92;64.59;101433.03;5403793;26;20066;-68
2024/04/11 00:32:44;;;;;;;1.08;0.10;;;;;;;13.76;65.34;101431.00;5414415;26;20015;-69
2024/04/11 00:35:10;;;;;;;0.30;0.10;;;;;;;13.71;65.37;101437.63;5410970;26;20303;-68
2024/04/11 00:37:36;;;;;;;0.60;0.03;;;;;;;13.67;65.67;101437.13;5414751;26;20044;-69
2024/04/11 00:40:03;;;;;;;2.78;0.17;;;;;;;13.55;66.55;101444.31;5407551;26;20404;-69
2024/04/11 00:42:28;;;;;;;1.30;0.20;;;;;;;13.40;66.02;101443.06;5409962;26;20034;-69
2024/04/11 00:44:54;;;;;;;0.80;0.20;;;;;;;13.38;66.87;101446.78;5407817;26;20419;-69
2024/04/11 00:47:20;;;;;;;0.30;0.10;;;;;;;13.36;66.62;101440.88;5406706;26;20016;-69
2024/04/11 00:49:46;;;;;;;0.88;0.10;;;;;;;13.44;66.12;101441.00;5412187;26;20014;-69
2024/04/11 00:52:13;;;;;;;1.17;0.10;;;;;;;13.55;65.58;101444.31;5410886;26;20023;-68
2024/04/11 00:54:39;;;;;;;0.47;0.10;;;;;;;13.48;66.26;101448.44;5406730;26;20084;-68
2024/04/11 00:57:08;;;;;;;3.30;0.30;;;;;;;13.46;65.33;101453.00;5402162;26;20384;-69
2024/04/11 00:59:38;;;;;;;3.40;0.10;;;;;;;13.51;65.12;101450.78;5400403;26;20468;-68
2024/04/11 01:02:10;;;;;;;0.45;0.15;;;;;;;13.47;65.23;101449.41;5411710;26;20292;-68
2024/04/11 01:04:36;;;;;;;1.50;0.10;;;;;;;13.43;66.01;101457.69;5413369;26;20016;-69
2024/04/11 01:07:11;;;;;;;6.55;0.15;;;;;;;13.31;67.22;101456.97;5407689;26;20413;-68
2024/04/11 01:09:44;;;;;;;3.47;0.20;;;;;;;13.22;67.57;101465.69;5408457;26;20019;-69
2024/04/11 01:12:16;;;;;;;0.50;0.10;;;;;;;13.19;67.04;101468.56;5406413;26;20019;-69
2024/04/11 01:14:44;;;;;;;3.65;0.10;;;;;;;13.23;66.65;101460.28;5407885;26;20008;-69
2024/04/11 01:17:13;;;;;;;0.85;0.20;;;;;;;13.37;66.21;101450.38;5406526;26;20011;-68
2024/04/11 01:19:40;;;;;;;0.40;0.10;;;;;;;13.32;67.10;101453.41;5417239;26;20432;-68
2024/04/11 01:22:06;;;;;;;0.52;0.10;;;;;;;13.15;69.12;101451.47;5407198;26;20451;-68
2024/04/11 01:24:34;;;;;;;1.13;0.08;;;;;;;12.95;69.31;101459.28;5416953;26;20011;-69
2024/04/11 01:27:00;;;;;;;0.77;0.10;;;;;;;12.89;69.09;101457.22;5418548;26;20011;-68
2024/04/11 01:29:25;;;;;;;0.73;0.10;;;;;;;12.84;68.69;101453.34;5401428;26;20015;-68
2024/04/11 01:31:53;;;;;;;0.32;0.10;;;;;;;12.92;68.14;101454.31;5410762;26;20019;-69
2024/04/11 01:34:19;;;;;;;1.63;0.10;;;;;;;13.04;67.62;101459.44;5418046;26;20003;-69
2024/04/11 01:36:44;;;;;;;1.48;0.10;;;;;;;13.17;67.23;101465.28;5404067;26;20082;-68
2024/04/11 01:39:11;;;;;;;2.58;0.10;;;;;;;13.13;68.54;101474.31;5410678;26;20315;-69
2024/04/11 01:41:39;;;;;;;0.40;0.10;;;;;;;12.94;69.04;101462.88;5409298;26;20022;-68
2024/04/11 01:44:05;;;;;;;0.40;0.10;;;;;;;12.85;69.28;101465.47;5410264;26;20408;-68
2024/04/11 01:46:30;;;;;;;1.27;0.10;;;;;;;12.85;68.95;101473.31;5405996;26;20025;-68
2024/04/11 01:48:55;;;;;;;0.85;0.10;;;;;;;12.83;69.01;101470.81;5409011;26;20405;-68
2024/04/11 01:51:21;;;;;;;0.50;0.10;;;;;;;12.80;69.89;101472.88;5405552;26;20463;-68
2024/04/11 01:53:46;;;;;;;0.57;0.10;;;;;;;12.81;69.64;101477.97;5414834;26;20007;-68
2024/04/11 01:56:12;;;;;;;5.93;0.10;;;;;;;12.75;69.74;101478.53;5412184;26;20008;-68
2024/04/11 01:58:41;;;;;;;0.65;0.10;;;;;;;12.68;69.51;101481.81;5412095;26;20092;-69
2024/04/11 02:01:12;;;;;;;0.88;0.10;;;;;;;12.67;70.49;101488.00;5406094;26;20399;-68
2024/04/11 02:03:41;;;;;;;0.30;0.10;;;;;;;12.61;71.23;101489.38;5409550;26;20004;-68
2024/04/11 02:06:07;;;;;;;3.42;0.15;;;;;;;12.54;71.16;101498.69;5409300;26;20029;-68
2024/04/11 02:08:35;;;;;;;1.08;0.10;;;;;;;12.52;70.85;101485.75;5407384;26;20436;-68
2024/04/11 02:11:01;;;;;;;1.80;0.20;;;;;;;12.50;70.53;101486.84;5405300;26;20322;-68
2024/04/11 02:13:27;;;;;;;1.00;0.10;;;;;;;12.55;71.14;101495.94;5407674;26;20034;-69
2024/04/11 02:15:56;;;;;;;1.77;0.10;;;;;;;12.62;70.73;101502.31;5409315;26;20451;-68
2024/04/11 02:18:21;;;;;;;0.50;0.10;;;;;;;12.67;71.04;101504.53;5414881;26;20456;-68
2024/04/11 02:20:47;;;;;;;0.43;0.00;;;;;;;12.66;70.52;101509.88;5412002;26;20031;-68
2024/04/11 02:23:13;;;;;;;2.33;0.10;;;;;;;12.66;70.56;101517.72;5405928;26;20126;-68
2024/04/11 02:25:39;;;;;;;0.95;0.00;;;;;;;12.64;70.11;101517.84;5410603;26;20007;-67
2024/04/11 02:28:05;;;;;;;0.65;0.10;;;;;;;12.57;69.90;101521.94;5413193;26;20008;-67
2024/04/11 02:30:31;;;;;;;0.32;0.10;;;;;;;12.50;69.29;101531.28;5410492;26;20054;-68
2024/04/11 02:32:57;;;;;;;1.05;0.10;;;;;;;12.49;69.75;101522.59;5410682;26;20040;-67
2024/04/11 02:35:22;;;;;;;0.20;0.10;;;;;;;12.43;70.17;101530.13;5416314;26;20014;-67
2024/04/11 02:37:51;;;;;;;0.35;0.10;;;;;;;12.32;70.59;101533.66;5410125;26;20058;-68
2024/04/11 02:40:17;;;;;;;1.85;0.17;;;;;;;12.21;71.87;101539.81;5414426;26;20011;-67
2024/04/11 02:42:43;;;;;;;0.50;0.10;;;;;;;12.10;71.86;101537.28;5406128;26;20012;-67
2024/04/11 02:45:08;;;;;;;1.27;0.10;;;;;;;12.05;73.43;101539.44;5407801;26;20474;-67
2024/04/11 02:47:38;;;;;;;0.68;0.10;;;;;;;11.98;73.35;101547.91;5410738;26;20019;-67
2024/04/11 02:50:06;;;;;;;0.70;0.35;;;;;;;11.84;73.63;101556.88;5412532;26;20419;-67
2024/04/11 02:52:32;;;;;;;3.78;0.28;;;;;;;11.79;74.37;101557.28;5408194;26;20462;-67
2024/04/11 02:54:58;;;;;;;0.38;0.20;;;;;;;11.72;75.18;101557.88;5408317;26;20105;-67
2024/04/11 02:57:23;;;;;;;0.10;0.10;;;;;;;11.61;75.74;101562.19;5414775;26;20018;-68
2024/04/11 02:59:53;;;;;;;2.03;0.15;;;;;;;11.62;74.59;101569.06;5408078;26;20018;-67
2024/04/11 03:02:23;;;;;;;1.30;0.10;;;;;;;11.73;74.39;101575.19;5410614;26;20018;-68
2024/04/11 03:04:51;;;;;;;1.60;0.13;;;;;;;11.67;75.36;101568.69;5410180;26;20062;-68
2024/04/11 03:07:18;;;;;;;2.40;0.20;;;;;;;11.64;75.27;101574.97;5412216;26;20008;-68
2024/04/11 03:09:43;;;;;;;0.43;0.10;;;;;;;11.62;76.11;101584.72;5405672;26;20047;-68
2024/04/11 03:12:08;;;;;;;0.80;0.10;;;;;;;11.59;76.00;101592.78;5413239;26;20642;-68
2024/04/11 03:14:34;;;;;;;6.03;0.10;;;;;;;11.54;76.35;101586.28;5414081;26;20010;-68
2024/04/11 03:16:59;;;;;;;0.98;0.20;;;;;;;11.56;75.88;101593.03;5403875;26;20015;-68
2024/04/11 03:19:25;;;;;;;1.83;0.13;;;;;;;11.46;75.54;101597.34;5412522;26;20011;-68
2024/04/11 03:21:50;;;;;;;5.25;0.20;;;;;;;11.51;75.69;101603.00;5403671;26;20038;-68
2024/04/11 03:24:16;;;;;;;1.70;0.10;;;;;;;11.49;75.50;101609.31;5405193;26;20008;-67
2024/04/11 03:26:41;;;;;;;1.00;0.20;;;;;;;11.42;76.23;101616.78;5408379;26;20012;-68
2024/04/11 03:29:08;;;;;;;0.68;0.20;;;;;;;11.38;76.90;101617.16;5408106;26;20026;-68
2024/04/11 03:31:33;;;;;;;0.88;0.20;;;;;;;11.35;77.41;101609.56;5403481;26;20445;-68
2024/04/11 03:34:04;;;;;;;2.40;0.10;;;;;;;11.33;78.02;101614.94;5410420;26;20027;-68
2024/04/11 03:36:32;;;;;;;1.40;0.10;;;;;;;11.30;78.67;101615.19;5411762;26;20102;-68
2024/04/11 03:38:57;;;;;;;2.90;0.38;;;;;;;11.26;78.65;101634.63;5414483;26;20031;-68
2024/04/11 03:41:22;;;;;;;1.23;0.20;;;;;;;11.17;78.54;101633.56;5410832;26;20007;-68
2024/04/11 03:43:54;;;;;;;2.00;0.20;;;;;;;11.14;79.42;101638.19;5410929;26;20007;-68
2024/04/11 03:46:21;;;;;;;2.40;0.20;;;;;;;11.09;79.05;101643.75;5410506;26;20012;-68
2024/04/11 03:48:55;;;;;;;2.47;0.22;;;;;;;11.06;80.15;101644.00;5410051;26;20011;-68
2024/04/11 03:51:22;;;;;;;1.95;0.17;;;;;;;11.02;81.25;101647.78;5407487;26;20073;-67
2024/04/11 03:53:57;;;;;;;4.00;0.30;;;;;;;10.96;79.63;101648.25;5408392;26;20012;-68
2024/04/11 03:56:23;;;;;;;1.98;0.30;;;;;;;11.08;79.57;101656.94;5411549;26;20003;-68
2024/04/11 03:58:50;;;;;;;5.07;0.50;;;;;;;11.13;79.72;101665.22;5413553;26;20455;-68
2024/04/11 04:01:18;;;;;;;2.85;0.20;;;;;;;11.14;79.99;101667.72;5402849;26;20003;-68
2024/04/11 04:03:44;;;;;;;1.00;0.15;;;;;;;11.15;80.61;101669.38;5414486;26;20015;-68
2024/04/11 04:06:10;;;;;;;1.20;0.28;;;;;;;11.14;80.69;101672.09;5405913;26;20022;-67
2024/04/11 04:08:37;;;;;;;1.13;0.20;;;;;;;11.06;81.30;101670.09;5408761;26;20018;-68
2024/04/11 04:11:02;;;;;;;2.60;0.40;;;;;;;11.07;81.67;101668.31;5407016;26;20433;-68
2024/04/11 04:13:28;;;;;;;1.42;0.15;;;;;;;11.07;81.58;101676.13;5401697;26;20025;-67
2024/04/11 04:15:55;;;;;;;4.78;0.25;;;;;;;11.07;81.64;101681.34;5405380;26;20440;-68
2024/04/11 04:18:24;;;;;;;5.90;0.10;;;;;;;11.08;81.43;101677.78;5408057;26;20022;-68
2024/04/11 04:20:58;;;;;;;1.98;0.47;;;;;;;11.10;82.41;101662.84;5412627;26;20051;-68
2024/04/11 04:23:24;;;;;;;1.33;0.40;;;;;;;11.15;81.75;101665.94;5382928;26;20524;-68
2024/04/11 04:25:59;;;;;;;2.05;0.30;;;;;;;11.22;82.35;101656.69;5400783;26;20015;-68
2024/04/11 04:28:32;;;;;;;10.77;0.60;;;;;;;11.26;80.64;101671.16;5401192;26;20462;-68
2024/04/11 04:31:20;;;;;;;1.02;0.30;;;;;;;11.36;80.92;101671.25;5405599;26;20022;-68
2024/04/11 04:33:47;;;;;;;2.25;0.30;;;;;;;11.43;80.74;101668.03;5397113;26;20012;-67
2024/04/11 04:36:16;;;;;;;1.42;0.30;;;;;;;11.47;80.52;101669.44;5406815;26;20003;-68
2024/04/11 04:38:44;;;;;;;1.45;0.40;;;;;;;11.52;80.21;101680.34;5409782;26;20126;-68
2024/04/11 04:41:10;;;;;;;2.05;0.30;;;;;;;11.60;80.72;101688.41;5399421;26;20069;-68
2024/04/11 04:43:37;;;;;;;4.75;0.75;;;;;;;11.60;81.47;101685.81;5404529;26;20021;-68
2024/04/11 04:46:02;;;;;;;1.92;0.30;;;;;;;11.60;81.64;101679.75;5402373;26;20151;-68
2024/04/11 04:48:29;;;;;;;1.52;0.20;;;;;;;11.56;81.31;101692.22;5405620;26;20034;-68
2024/04/11 04:50:55;;;;;;;4.47;0.30;;;;;;;11.43;79.89;101694.13;5403623;26;20004;-68
2024/04/11 04:53:20;;;;;;;6.75;0.40;;;;;;;11.46;79.86;101693.88;5409942;26;20043;-68
2024/04/11 04:55:46;;;;;;;7.85;0.30;;;;;;;11.53;80.74;101689.84;5402617;26;20308;-68
2024/04/11 04:58:11;;;;;;;1.77;0.20;;;;;;;11.59;81.18;101693.75;5401370;26;20051;-68
2024/04/11 05:00:37;;;;;;;1.50;0.20;;;;;;;11.39;80.40;101703.16;5404938;26;20015;-68
2024/04/11 05:03:10;;;;;;;7.60;0.30;;;;;;;11.30;80.18;101702.09;5407284;26;20004;-68
2024/04/11 05:05:38;;;;;;;2.58;0.20;;;;;;;11.37;81.59;101699.81;5402592;26;20028;-68
2024/04/11 05:08:07;;;;;;;4.57;0.30;;;;;;;11.44;81.72;101706.22;5399789;26;20081;-68
2024/04/11 05:10:38;;;;;;;6.25;0.40;;;;;;;11.47;81.71;101702.56;5405150;26;20375;-68
2024/04/11 05:13:09;;;;;;;6.05;0.50;;;;;;;11.46;80.68;101709.53;5405926;26;20129;-68
2024/04/11 05:15:38;;;;;;;11.00;0.55;;;;;;;11.50;81.35;101700.53;5408980;26;20003;-68
2024/04/11 05:18:05;;;;;;;11.02;0.30;;;;;;;11.59;81.33;101699.81;5390317;26;20058;-68
2024/04/11 05:20:34;;;;;;;4.60;0.30;;;;;;;11.66;81.99;101704.56;5402945;26;20080;-69
2024/04/11 05:23:00;;;;;;;5.45;0.40;;;;;;;11.68;82.62;101703.47;5408581;26;20012;-69
2024/04/11 05:25:30;;;;;;;7.10;0.40;;;;;;;11.69;82.57;101705.13;5404759;26;20030;-69
2024/04/11 05:27:55;;;;;;;2.40;0.35;;;;;;;11.70;82.56;101708.59;5415156;26;20043;-69
2024/04/11 05:30:21;;;;;;;4.10;0.35;;;;;;;11.61;82.62;101721.41;5412565;26;20034;-68
2024/04/11 05:32:47;;;;;;;4.72;0.20;;;;;;;11.66;83.38;101720.22;5409726;26;20008;-68
2024/04/11 05:35:13;;;;;;;5.50;0.40;;;;;;;11.71;83.56;101721.50;5405241;26;20105;-68
2024/04/11 05:37:44;;;;;;;1.77;0.20;;;;;;;11.79;83.60;101710.50;5409732;26;20043;-68
2024/04/11 05:40:12;;;;;;;2.88;0.20;;;;;;;11.84;83.69;101721.38;5406227;26;20008;-68
2024/04/11 05:42:44;;;;;;;0.50;0.13;;;;;;;11.89;83.38;101716.63;5405283;26;20018;-68
2024/04/11 05:45:18;;;;;;;4.88;0.20;;;;;;;11.94;83.39;101722.31;5405192;26;20030;-68
2024/04/11 05:47:44;;;;;;;1.10;0.20;;;;;;;11.96;83.29;101721.22;5403067;26;20459;-68
2024/04/11 05:50:09;;;;;;;1.95;0.13;;;;;;;12.01;82.75;101714.81;5396854;26;20313;-68
2024/04/11 05:52:35;;;;;;;1.88;0.30;;;;;;;12.03;83.19;101724.19;5405328;26;20023;-68
2024/04/11 05:55:02;;;;;;;7.35;0.30;;;;;;;11.93;81.52;101725.88;5413833;26;20469;-68
2024/04/11 05:57:28;;;;;;;2.80;0.30;;;;;;;12.06;82.30;101729.16;5405650;26;20355;-68
2024/04/11 05:59:55;;;;;;;1.48;0.28;;;;;;;12.17;83.06;101729.13;5407853;26;20080;-67
2024/04/11 06:02:21;;;;;;;1.60;0.20;;;;;;;12.18;82.73;101725.56;5408762;26;20008;-69
2024/04/11 06:04:47;;;;;;;2.85;0.20;;;;;;;12.19;81.71;101729.84;5410363;26;20011;-68
2024/04/11 06:07:14;;;;;;;0.80;0.20;;;;;;;12.34;81.57;101724.31;5423535;26;20535;-68
2024/04/11 06:09:40;;;;;;;1.60;0.20;;;;;;;12.50;80.69;101738.59;5414271;26;20073;-68
2024/04/11 06:12:05;;;;;;;2.50;0.40;;;;;;;12.96;72.45;101725.16;5408344;26;20019;-68
2024/04/11 06:14:31;;;;;;;2.80;0.20;;;;;;;13.24;74.46;101744.59;5404944;26;20007;-68
2024/04/11 06:16:56;;;;;;;0.80;0.10;;;;;;;13.38;73.52;101729.50;5417338;26;20004;-69
2024/04/11 06:19:22;;;;;;;1.27;0.13;;;;;;;13.60;73.22;101722.28;5410113;26;20027;-67
2024/04/11 06:21:53;;;;;;;1.33;0.25;;;;;;;13.74;72.84;101731.53;5410615;26;20343;-68
2024/04/11 06:24:22;;;;;;;1.58;0.20;;;;;;;13.83;72.20;101735.13;5409064;26;20016;-68
2024/04/11 06:26:48;;;;;;;0.50;0.17;;;;;;;14.02;72.79;101732.56;5409985;26;20011;-68
2024/04/11 06:29:19;;;;;;;2.35;0.17;;;;;;;14.17;72.48;101746.94;5411164;26;20536;-68
2024/04/11 06:31:46;;;;;;;1.40;0.20;;;;;;;14.31;72.72;101744.84;5411890;26;20022;-68
2024/04/11 06:34:13;;;;;;;0.95;0.20;;;;;;;14.32;72.63;101749.13;5411880;26;20007;-68
2024/04/11 06:36:39;;;;;;;0.75;0.08;;;;;;;14.41;71.32;101749.16;5407085;26;20059;-68
2024/04/11 06:39:09;;;;;;;0.55;0.10;;;;;;;14.54;70.72;101733.16;5412422;26;20088;-68
2024/04/11 06:41:36;;;;;;;1.23;0.10;;;;;;;14.67;70.33;101738.06;5410045;26;20008;-67
2024/04/11 06:44:03;;;;;;;1.02;0.10;;;;;;;14.88;70.43;101742.19;5412265;26;20357;-69
2024/04/11 06:46:28;;;;;;;0.75;0.10;;;;;;;15.03;70.13;101736.50;5412451;26;20569;-70
2024/04/11 06:48:57;;;;;;;2.78;0.10;;;;;;;15.10;69.52;101748.09;5401127;26;20007;-65
2024/04/11 06:51:23;;;;;;;0.90;0.10;;;;;;;15.29;69.63;101742.75;5405362;26;20015;-67
2024/04/11 06:53:48;;;;;;;1.38;0.10;;;;;;;15.40;69.02;101745.19;5409950;26;20007;-66
2024/04/11 06:56:17;;;;;;;0.95;0.17;;;;;;;15.46;68.62;101749.88;5398351;26;20084;-66
2024/04/11 06:58:45;;;;;;;0.65;0.10;;;;;;;15.63;68.27;101755.34;5402567;26;20019;-66
2024/04/11 07:01:15;;;;;;;0.47;0.10;;;;;;;15.75;68.35;101751.53;5404837;26;20011;-66
2024/04/11 07:03:43;;;;;;;1.25;0.10;;;;;;;15.92;68.52;101740.25;5405984;26;20035;-66
2024/04/11 07:06:10;;;;;;;0.88;0.30;;;;;;;16.03;68.33;101737.41;5408384;26;19925;-67
2024/04/11 07:08:38;;;;;;;0.47;0.10;;;;;;;16.10;67.86;101748.13;5411356;26;20020;-66
2024/04/11 07:11:20;;;;;;;0.20;0.10;;;;;;;16.19;67.63;101748.06;5406618;26;20408;-66
2024/04/11 07:13:46;;;;;;;0.30;0.10;;;;;;;16.29;67.69;101749.81;5409020;26;20003;-67
2024/04/11 07:16:16;;;;;;;0.40;0.15;;;;;;;16.38;67.08;101760.25;5410954;26;20019;-67
2024/04/11 07:18:48;;;;;;;2.25;0.30;;;;;;;16.49;67.03;101767.09;5399615;26;20035;-66
2024/04/11 07:21:17;;;;;;;0.70;0.10;;;;;;;16.45;66.50;101773.63;5407156;26;20407;-66
2024/04/11 07:23:53;;;;;;;2.45;0.20;;;;;;;16.39;66.55;101776.84;5411279;26;20112;-66
2024/04/11 07:26:22;;;;;;;1.35;0.10;;;;;;;16.54;66.77;101778.00;5408459;26;20043;-66
2024/04/11 07:28:48;;;;;;;2.35;0.17;;;;;;;16.62;66.47;101785.09;5411629;26;20012;-66
2024/04/11 07:31:17;;;;;;;4.68;0.20;;;;;;;16.67;66.90;101775.81;5411398;26;20008;-66
2024/04/11 07:33:43;;;;;;;0.50;0.10;;;;;;;16.71;66.11;101778.94;5408024;26;20012;-66
2024/04/11 07:36:13;;;;;;;1.75;0.10;;;;;;;16.71;66.26;101771.88;5408723;26;20022;-66
2024/04/11 07:38:40;;;;;;;2.38;0.10;;;;;;;16.71;66.25;101774.53;5411587;26;20004;-66
2024/04/11 07:41:16;;;;;;;0.75;0.20;;;;;;;16.83;66.17;101769.84;5411117;26;20032;-65
2024/04/11 07:43:47;;;;;;;0.30;0.20;;;;;;;16.90;65.96;101773.50;5406796;26;20463;-66
2024/04/11 07:46:15;;;;;;;0.50;0.10;;;;;;;17.12;64.71;101775.63;5405905;26;20012;-67
2024/04/11 07:48:51;;;;;;;0.63;0.13;;;;;;;17.24;62.76;101773.56;5396201;26;20057;-66
2024/04/11 07:51:18;;;;;;;3.60;0.10;;;;;;;17.32;63.59;101773.59;5406584;26;20488;-66
2024/04/11 07:53:46;;;;;;;1.95;0.13;;;;;;;17.50;63.41;101787.50;5404385;26;20712;-66
2024/04/11 07:56:20;;;;;;;1.02;0.20;;;;;;;17.78;63.11;101784.69;5399639;26;20412;-66
2024/04/11 07:58:50;;;;;;;1.05;0.20;;;;;;;18.11;62.04;101777.69;5398456;26;20008;-66
2024/04/11 08:01:16;;;;;;;3.22;0.10;;;;;;;18.20;62.12;101780.19;5405300;26;20007;-67
2024/04/11 08:03:43;;;;;;;2.13;0.20;;;;;;;18.16;61.99;101785.94;5403687;26;20085;-67
2024/04/11 08:06:10;;;;;;;0.70;0.10;;;;;;;18.31;61.93;101788.78;5403270;26;20019;-67
2024/04/11 08:08:38;;;;;;;2.35;0.20;;;;;;;18.73;61.74;101786.84;5408097;26;20008;-67
2024/04/11 08:11:06;;;;;;;1.05;0.10;;;;;;;18.71;58.73;101790.63;5403558;26;20109;-68
2024/04/11 08:13:32;;;;;;;2.20;0.20;;;;;;;18.77;60.76;101796.06;5403787;26;20023;-67
2024/04/11 08:15:58;;;;;;;0.43;0.10;;;;;;;18.99;60.49;101797.19;5400883;26;20019;-67
2024/04/11 08:18:27;;;;;;;0.50;0.20;;;;;;;19.10;59.58;101801.31;5397215;26;20385;-67
2024/04/11 08:20:54;;;;;;;0.57;0.20;;;;;;;19.04;60.13;101799.34;5373322;26;20007;-67
2024/04/11 08:23:20;;;;;;;1.35;0.10;;;;;;;19.08;60.37;101804.13;5402194;26;20019;-67
2024/04/11 08:25:58;;;;;;;0.50;0.10;;;;;;;19.02;58.19;101796.03;5401973;26;20018;-66
2024/04/11 08:28:23;;;;;;;0.38;0.10;;;;;;;19.04;60.18;101807.25;5404671;26;20082;-67
2024/04/11 08:30:51;;;;;;;2.78;0.68;;;;;;;19.25;59.46;101812.84;5411739;26;20011;-66
2024/04/11 08:33:20;;;;;;;0.43;0.10;;;;;;;19.20;58.88;101809.88;5399822;26;20011;-66
2024/04/11 08:35:47;;;;;;;1.75;0.20;;;;;;;19.04;60.38;101815.19;5411723;26;20022;-66
2024/04/11 08:38:15;;;;;;;1.35;0.28;;;;;;;19.21;60.70;101816.81;5399764;26;20007;-67
2024/04/11 08:40:49;;;;;;;2.75;0.10;;;;;;;19.16;59.93;101819.13;5411173;26;20007;-67
2024/04/11 08:43:16;;;;;;;0.70;0.10;;;;;;;19.28;60.55;101817.78;5407227;26;20003;-67
2024/04/11 08:45:42;;;;;;;1.33;0.20;;;;;;;19.41;59.54;101826.00;5407569;26;20047;-67
2024/04/11 08:48:08;;;;;;;0.50;0.10;;;;;;;19.50;60.22;101819.69;5407874;26;20008;-68
2024/04/11 08:50:34;;;;;;;0.40;0.10;;;;;;;19.63;59.22;101826.31;5404750;26;20019;-67
2024/04/11 08:53:00;;;;;;;0.98;0.20;;;;;;;19.49;59.20;101820.69;5399419;26;20007;-67
2024/04/11 08:55:26;;;;;;;0.60;0.10;;;;;;;19.40;59.73;101826.16;5403831;26;20018;-67
2024/04/11 08:57:54;;;;;;;1.75;0.10;;;;;;;19.47;59.83;101821.84;5408086;26;20022;-67
2024/04/11 09:00:21;;;;;;;3.08;0.50;;;;;;;19.50;60.16;101822.34;5407948;26;20023;-67
2024/04/11 09:02:48;;;;;;;0.50;0.20;;;;;;;19.62;59.66;101820.19;5412243;26;20015;-67
2024/04/11 09:05:17;;;;;;;1.20;0.13;;;;;;;19.77;57.37;101817.66;5406513;26;20051;-67
2024/04/11 09:07:45;;;;;;;0.70;0.20;;;;;;;19.77;57.76;101817.66;5407078;26;20775;-66
2024/04/11 09:10:12;;;;;;;1.40;0.13;;;;;;;19.54;58.02;101822.84;5408809;26;20011;-66
2024/04/11 09:12:42;;;;;;;0.20;0.10;;;;;;;19.54;58.06;101813.09;5405428;26;20015;-66
2024/04/11 09:15:08;;;;;;;0.65;0.20;;;;;;;19.73;57.75;101813.72;5412346;26;20018;-66
2024/04/11 09:17:43;;;;;;;2.53;0.28;;;;;;;19.81;57.26;101813.69;5403187;26;20003;-67
2024/04/11 09:20:12;;;;;;;0.33;0.10;;;;;;;19.84;58.72;101813.34;5411998;26;20031;-67
2024/04/11 09:22:46;;;;;;;1.48;0.20;;;;;;;19.84;58.80;101818.63;5410525;26;20347;-66
2024/04/11 09:25:12;;;;;;;1.58;0.20;;;;;;;19.80;59.88;101815.50;5403520;26;20019;-67
2024/04/11 09:27:38;;;;;;;0.55;0.20;;;;;;;19.61;58.49;101818.53;5404126;26;20395;-66
2024/04/11 09:30:06;;;;;;;0.95;0.10;;;;;;;19.68;58.60;101819.50;5407009;26;20010;-67
2024/04/11 09:32:36;;;;;;;0.28;0.10;;;;;;;19.73;58.77;101819.00;5403342;26;20058;-67
2024/04/11 09:35:05;;;;;;;1.52;0.10;;;;;;;19.72;58.67;101825.28;5404678;26;20007;-67
2024/04/11 09:37:32;;;;;;;0.52;0.10;;;;;;;19.63;59.40;101818.38;5398769;26;20480;-67
2024/04/11 09:40:11;;;;;;;1.35;0.20;;;;;;;19.42;59.70;101817.06;5405474;26;20007;-67
2024/04/11 09:42:39;;;;;;;3.20;0.30;;;;;;;19.40;59.61;101816.41;5394009;26;20127;-67
2024/04/11 09:45:11;;;;;;;9.10;0.30;;;;;;;19.46;59.86;101815.75;5413014;26;20003;-66
2024/04/11 09:47:38;;;;;;;2.00;0.20;;;;;;;19.57;59.48;101817.22;5403170;26;20336;-67
2024/04/11 09:50:05;;;;;;;1.08;0.10;;;;;;;19.69;59.12;101822.97;5401611;26;20016;-67
2024/04/11 09:52:37;;;;;;;0.85;0.20;;;;;;;19.74;58.31;101813.53;5409330;26;20092;-66
2024/04/11 09:55:04;;;;;;;1.83;0.20;;;;;;;19.78;58.97;101816.66;5412495;26;20017;-66
2024/04/11 09:57:36;;;;;;;0.75;0.10;;;;;;;19.94;58.04;101819.22;5413163;26;20368;-67
2024/04/11 10:00:48;;;;;;;0.45;0.20;;;;;;;20.06;58.47;101815.19;5413436;26;20292;-66
2024/04/11 10:03:09;;;;;;;2.60;0.20;;;;;;;20.15;57.72;101810.69;5410936;26;20011;-67
2024/04/11 10:05:40;;;;;;;3.22;0.20;;;;;;;20.26;57.19;101804.16;5401715;26;20043;-67
2024/04/11 10:08:16;;;;;;;0.52;0.20;;;;;;;20.35;56.87;101805.72;5409467;26;20055;-67
2024/04/11 10:10:42;;;;;;;1.23;0.20;;;;;;;20.42;57.22;101810.19;5412584;26;20008;-67
2024/04/11 10:13:12;;;;;;;2.35;0.10;;;;;;;20.44;56.94;101816.13;5409953;26;20419;-66
2024/04/11 10:15:37;;;;;;;1.17;0.20;;;;;;;20.51;57.30;101811.78;5410576;26;20011;-66
2024/04/11 10:18:11;;;;;;;1.05;0.15;;;;;;;20.49;57.19;101813.78;5412160;26;20008;-66
2024/04/11 10:21:02;;;;;;;2.40;0.20;;;;;;;20.42;57.47;101810.19;5404362;26;20008;-66
2024/04/11 10:23:32;;;;;;;0.82;0.20;;;;;;;20.46;57.35;101808.81;5391561;26;20019;-66
2024/04/11 10:25:59;;;;;;;0.63;0.15;;;;;;;20.49;58.05;101805.81;5402807;26;20515;-66
2024/04/11 10:28:51;;;;;;;0.43;0.10;;;;;;;20.36;57.46;101807.38;5405867;26;20007;-66
2024/04/11 10:31:25;;;;;;;0.47;0.10;;;;;;;20.37;57.96;101811.66;5407143;26;20004;-66
2024/04/11 10:33:58;;;;;;;0.70;0.20;;;;;;;20.32;56.83;101806.91;5390573;26;20012;-66
2024/04/11 10:36:32;;;;;;;1.38;0.20;;;;;;;20.33;55.66;101803.25;5405320;26;20068;-66
2024/04/11 10:38:58;;;;;;;1.20;0.20;;;;;;;20.24;57.73;101804.34;5397902;26;20287;-67
2024/04/11 10:41:25;;;;;;;0.43;0.15;;;;;;;20.20;57.11;101793.28;5410492;26;20071;-67
2024/04/11 10:43:51;;;;;;;3.33;0.20;;;;;;;20.33;57.67;101790.03;5412183;26;20046;-67
2024/04/11 10:46:20;;;;;;;1.92;0.10;;;;;;;20.47;57.28;101789.31;5408706;26;20065;-67
2024/04/11 10:48:56;;;;;;;0.50;0.20;;;;;;;20.52;56.79;101780.81;5411129;26;20011;-66
2024/04/11 10:51:27;;;;;;;0.40;0.10;;;;;;;20.52;56.85;101783.47;5410381;26;20425;-66
2024/04/11 10:54:12;;;;;;;1.60;0.20;;;;;;;20.51;56.78;101785.28;5403807;26;20012;-66
2024/04/11 10:56:44;;;;;;;1.52;0.30;;;;;;;20.51;56.96;101785.28;5411612;26;20057;-66
2024/04/11 10:59:22;;;;;;;0.40;0.10;;;;;;;20.28;57.62;101784.47;5407676;26;20015;-66
2024/04/11 11:02:09;;;;;;;1.60;0.30;;;;;;;20.23;57.84;101786.00;5409172;26;20015;-66
2024/04/11 11:04:43;;;;;;;0.60;0.20;;;;;;;20.21;57.91;101783.53;5407148;26;20007;-66
2024/04/11 11:07:12;;;;;;;3.83;0.20;;;;;;;20.32;57.52;101784.94;5406055;26;20026;-66
2024/04/11 11:09:45;;;;;;;1.27;0.20;;;;;;;20.40;57.50;101782.22;5402925;26;20540;-66
2024/04/11 11:12:11;;;;;;;1.38;0.20;;;;;;;20.41;57.68;101787.34;5401846;26;20423;-66
2024/04/11 11:14:38;;;;;;;0.80;0.20;;;;;;;20.38;57.76;101781.59;5410524;26;20008;-65
2024/04/11 11:17:07;;;;;;;4.60;0.20;;;;;;;20.46;57.28;101781.53;5410963;26;20355;-66
2024/04/11 11:19:34;;;;;;;1.10;0.20;;;;;;;20.51;57.52;101779.19;5407879;26;20113;-65
2024/04/11 11:22:00;;;;;;;1.77;0.20;;;;;;;20.47;56.42;101778.72;5409205;26;20003;-66
2024/04/11 11:24:28;;;;;;;0.77;0.20;;;;;;;20.52;56.53;101771.06;5409364;26;20081;-67
2024/04/11 11:26:59;;;;;;;0.65;0.10;;;;;;;20.42;56.36;101770.47;5409050;26;20016;-65
2024/04/11 11:29:26;;;;;;;0.93;0.20;;;;;;;20.40;57.13;101771.66;5407498;26;20018;-65